Weather at Lancaster Airport

Public forecast

Using degrees Fahrenheit for public forecast. Weather courtesy of forecast.io.

Current aviation weather report (METAR) for Lancaster Airport

Retrieved 2021/03/04 00:53 UTC (2 hours ago):

KLNS 040053Z 27003KT 10SM CLR 08/M04 A2984 RMK AO2 SLP108 T00831039

Aviation forecast (TAF) for Lancaster Airport

Retrieved 2021-03-04 00:24 UTC (2 hours ago):

TAF KLNS 032322Z 0400/0424 24006KT P6SM SCT250 FM041300 31015G22KT P6SM BKN050